Observations for EXETER AIRPORT, United Kingdom (EGTE)

EGTE 190050Z 21009KT 9999 FEW030 17/16 Q1011
EGTE 190020Z 20009KT 9999 FEW016 SCT035 17/15 Q1011 
EGTE 182350Z 19009KT 9999 FEW016 SCT025 17/15 Q1011 
EGTE 182320Z 22009KT 6000 -RA SCT011 BKN020 17/16 Q1011 
EGTE 182250Z 21014KT 6000 -DZ BKN011 17/16 Q1011
EGTE 182220Z 21015KT 9000 SCT016 SCT038 18/14 Q1011 
EGTE 182150Z 20013KT 9999 BKN015 16/13 Q1011
EGTE 182120Z 20012KT 9999 BKN014 18/15 Q1011
EGTE 182050Z 20012KT 9999 BKN017 BKN047 18/15 Q1011 
EGTE 182020Z 20012KT 9999 BKN018 BKN049 19/16 Q1011 
EGTE 181950Z 19013KT 9999 BKN017 BKN049 18/15 Q1011 
EGTE 181920Z 20013KT 9999 BKN015 BKN048 18/15 Q1011 
EGTE 181850Z 20011KT 9999 SCT014 SCT020 BKN049 18/15 Q1011  
EGTE 181820Z 20012KT 9999 SCT012 SCT021 BKN048 18/15 Q1011  
EGTE 181750Z 21013KT 9999 BKN015 SCT040 18/15 Q1011 
EGTE 181720Z 21013KT 9999 BKN019 BKN047 16/13 Q1011 
EGTE 181650Z 20014KT 9999 BKN018 19/15 Q1011
EGTE 181620Z 21013KT 180V240 9999 SCT016 BKN023 18/14 Q1011 
EGTE 181550Z 22014KT 9999 SCT018 BKN021 19/15 Q1011 
EGTE 181520Z 20013KT 9999 BKN020 19/15 Q1011
EGTE 181450Z 21014KT 9999 BKN024 19/15 Q1011
EGTE 181420Z 22013KT 9999 BKN022 19/15 Q1011
EGTE 181350Z 22014KT 9999 BKN020 18/14 Q1011
EGTE 181320Z 21014KT 9999 BKN020 19/14 Q1010
EGTE 181250Z 22014KT 9999 BKN018 19/15 Q1010
EGTE 181220Z 22016KT 9999 BKN016 19/15 Q1010
EGTE 181150Z 23016KT 9999 VCSH BKN018 19/15 Q1010   
EGTE 181120Z 23017G27KT 9999 BKN020 19/14 Q1010 
EGTE 181050Z 23016KT 9999 BKN025 20/15 Q1009
EGTE 181020Z 22015G25KT 9999 SCT025 20/14 Q1009 
EGTE 180950Z 23014KT 9999 FEW025 19/14 Q1009
EGTE 180920Z 24014KT 9999 SCT025 19/13 Q1008
EGTE 180850Z 24012KT 220V280 9999 SCT025 17/13 Q1008
EGTE 180820Z 24013KT 9999 SCT025 16/12 Q1008
EGTE 180750Z 24012KT 9999 SCT025 17/12 Q1007
EGTE 180720Z 24014KT 9999 SCT020 17/13 Q1007
EGTE 180650Z 24014KT 9999 FEW015 SCT025 16/12 Q1006 
EGTE 180620Z 24017G27KT 9999 FEW010 SCT015 16/13 Q1005  
EGTE 180550Z 23017KT 9999 FEW010 BKN014 16/14 Q1005 
EGTE 180520Z 22016KT 9999 SCT014 16/14 Q1004
EGTE 180450Z 22019G30KT 9999 BKN013 17/15 Q1004